Latest Conditions
At L.F.Wade Int. Airport
Recorded at 11:55 pm
Few Clouds
Temp.: 
24°C/74°F
Humidity: 
72%
Wind: 
N 5KT
or 6mph
UV Index: 
0
Island Observations
 
Observations
Friday, October 20, 2017

Observations are in local time and taken at least once an hour, or upon the start and end of specified events such as showers and thunderstorms.

Time Sky / Weather Wind Speed/Gusts Temp. R.H. Pressure
     knots (mph)  °C (°F)  %  mb / "Hg
 23:55 Few Clouds  N 5/0 (6/0) 24(74) 72 1020 / 30.12
 22:55 Few Clouds  NNE 4/0 (5/0) 24(74) 71 1020 / 30.12
 21:55 Few Clouds  NNE 8/0 (9/0) 24(75) 70 1019 / 30.10
 20:55 Partly Cloudy  NNE 8/0 (9/0) 24(76) 69 1019 / 30.09
 19:55 Partly Cloudy  N 8/0 (9/0) 24(76) 69 1019 / 30.08
 18:55 Mostly Cloudy  N 9/0 (10/0) 25(76) 68 1018 / 30.07
 17:55 Partly Cloudy  N 7/0 (8/0) 25(77) 67 1018 / 30.05
 16:55 Partly Cloudy  N 10/0 (12/0) 26(78) 65 1017 / 30.03
 15:55 Partly Cloudy  NNE 11/0 (13/0) 26(78) 69 1017 / 30.02
 14:55 Partly Cloudy  NNE 13/0 (15/0) 25(78) 74 1016 / 30.01
 14:13 Mostly Cloudy Showers NNE 13/23 (15/26) 23(74) 81 1017 / 30.02
 14:00 Mostly Cloudy Showers NNW 12/22 (14/25) 24(74) 80 1017 / 30.02
 13:55 Mostly Cloudy Showers NE 10/0 (12/0) 25(77) 75 1017 / 30.02
 13:46 Mostly Cloudy Showers NNE 10/0 (12/0) 25(77) 78 1017 / 30.02
 13:11 Mostly Cloudy Showers NNW 8/0 (9/0) 22(72) 87 1017 / 30.03
 12:55 Overcast Showers NW 7/0 (8/0) 22(72) 87 1017 / 30.04
 12:25 Mostly Cloudy Showers N 10/0 (12/0) 22(71) 86 1017 / 30.04
 12:20 Overcast Showers N 14/0 (16/0) 22(71) 86 1017 / 30.04
 12:09 Overcast Showers N 18/28 (21/32) 22(72) 87 1017 / 30.04
 12:01 Mostly Cloudy Showers N 14/0 (16/0) 24(75) 77 1017 / 30.03
 11:55 Mostly Cloudy Showers NNE 13/0 (15/0) 26(78) 72 1017 / 30.03
 10:55 Mostly Cloudy  N 13/0 (15/0) 25(77) 73 1017 / 30.02
 09:55 Mostly Cloudy  N 14/0 (16/0) 25(77) 75 1016 / 30.00
 08:55 Mostly Cloudy Showers N 13/0 (15/0) 24(75) 78 1015 / 29.97
 08:20 Mostly Cloudy Showers NNW 13/0 (15/0) 23(73) 83 1014 / 29.95
 08:08 Mostly Cloudy Showers N 9/0 (10/0) 23(74) 83 1014 / 29.95
 07:55 Mostly Cloudy Showers NNW 6/0 (7/0) 22(72) 88 1014 / 29.94
 07:18 Mostly Cloudy Showers N 8/0 (9/0) 23(73) 83 1014 / 29.93
 06:55 Mostly Cloudy Showers N 9/0 (10/0) 22(72) 84 1013 / 29.92
 05:55 Overcast Showers E 14/0 (16/0) 21(69) 88 1011 / 29.85
 05:11 Overcast Showers ENE 17/0 (20/0) 20(67) 93 1011 / 29.86
 04:55 Overcast Showers NNE 17/0 (20/0) 20(67) 94 1012 / 29.89
 04:41 Overcast Showers N 17/0 (20/0) 19(67) 95 1012 / 29.89
 04:11 Overcast Showers NE 11/0 (13/0) 20(67) 95 1012 / 29.88
 03:55 Overcast Showers E 5/0 (6/0) 20(68) 95 1012 / 29.88
 03:26 Overcast Showers E 3/0 (3/0) 20(68) 95 1012 / 29.88
 02:55 Overcast Showers W 3/0 (3/0) 20(68) 96 1012 / 29.89
 02:22 Overcast Showers WNW 6/0 (7/0) 20(68) 95 1013 / 29.90
 02:07 Overcast Showers W 9/0 (10/0) 20(68) 95 1013 / 29.90
 01:55 Overcast Showers WSW 10/0 (12/0) 20(69) 95 1013 / 29.91
 01:45 Overcast Showers WSW 9/0 (10/0) 20(68) 95 1013 / 29.91
 01:34 Overcast Showers W 10/0 (12/0) 21(71) 94 1013 / 29.90
 01:04 Overcast Showers ENE 4/0 (5/0) 21(71) 94 1013 / 29.90
 00:55 Overcast Showers ENE 6/0 (7/0) 21(71) 94 1013 / 29.91
 00:30 Overcast Showers ENE 7/0 (8/0) 21(70) 94 1013 / 29.92
 23:55 Overcast Showers ENE 5/0 (6/0) 21(70) 94 1014 / 29.94
 22:55 Overcast Showers E 10/0 (12/0) 22(71) 94 1015 / 29.96
 21:55 Overcast Rain SE 9/0 (10/0) 22(72) 93 1015 / 29.97
 20:55 Overcast Rain ESE 16/0 (18/0) 23(73) 92 1015 / 29.97
 20:43 Overcast Rain ESE 18/0 (21/0) 23(73) 91 1015 / 29.97
 20:25 Overcast Rain ESE 20/0 (23/0) 23(73) 91 1015 / 29.97
 19:55 Overcast Rain ESE 19/0 (22/0) 23(74) 90 1015 / 29.97
 18:55 Overcast Rain E 15/0 (17/0) 23(74) 90 1016 / 29.99
 18:31 Overcast Rain E 14/0 (16/0) 23(73) 92 1016 / 29.99
 17:55 Overcast Rain E 16/0 (18/0) 23(73) 90 1016 / 30.00
 17:45 Overcast Rain E 17/0 (20/0) 23(73) 90 1016 / 30.00
 16:55 Overcast Showers E 15/0 (17/0) 23(74) 88 1016 / 30.00
 16:15 Overcast Showers E 17/0 (20/0) 24(75) 87 1016 / 30.01
 15:55 Overcast Showers E 17/0 (20/0) 24(75) 86 1017 / 30.02
 15:40 Overcast Showers E 17/0 (20/0) 24(75) 86 1017 / 30.02
 15:21 Overcast Showers E 16/0 (18/0) 24(76) 86 1017 / 30.03
 14:55 Mostly Cloudy Showers E 15/0 (17/0) 24(76) 84 1018 / 30.05
 13:55 Overcast Showers E 14/0 (16/0) 25(78) 80 1018 / 30.07
 13:38 Overcast Showers E 15/0 (17/0) 25(77) 79 1019 / 30.08
 12:55 Mostly Cloudy  E 15/0 (17/0) 25(77) 79 1019 / 30.10
 11:55 Mostly Cloudy Showers E 16/0 (18/0) 25(76) 78 1020 / 30.11
 11:07 Mostly Cloudy Showers E 14/0 (16/0) 23(74) 85 1020 / 30.13
 10:55 Overcast Showers E 16/0 (18/0) 24(74) 85 1020 / 30.13
 10:41 Overcast Showers E 17/0 (20/0) 24(74) 82 1020 / 30.13
 10:07 Overcast Showers E 14/0 (16/0) 24(76) 82 1020 / 30.13
 09:55 Overcast Showers E 14/0 (16/0) 24(76) 80 1020 / 30.13
 09:45 Overcast Showers E 15/0 (17/0) 24(76) 79 1020 / 30.13
 09:37 Overcast Showers E 16/0 (18/0) 24(76) 79 1020 / 30.13
 09:32 Overcast Showers E 15/0 (17/0) 25(76) 78 1020 / 30.12
 08:55 Overcast Showers E 16/0 (18/0) 25(76) 77 1020 / 30.12
 07:55 Overcast  E 14/0 (16/0) 24(76) 79 1020 / 30.11
 06:55 Overcast Showers ENE 15/0 (17/0) 24(76) 78 1019 / 30.10
 05:55 Overcast Showers ENE 14/0 (16/0) 24(76) 78 1020 / 30.11
 05:37 Overcast Showers E 14/0 (16/0) 24(76) 76 1019 / 30.10
 04:55 Overcast Showers ENE 15/0 (17/0) 24(76) 77 1020 / 30.11
 03:55 Overcast  ENE 14/0 (16/0) 24(75) 77 1020 / 30.11
 02:55 Overcast  ENE 15/0 (17/0) 24(75) 75 1020 / 30.13
 02:32 Overcast Showers ENE 14/0 (16/0) 24(75) 77 1021 / 30.14
 01:55 Mostly Cloudy  ENE 14/0 (16/0) 24(75) 77 1021 / 30.14
 00:55 Overcast  ENE 14/0 (16/0) 23(74) 81 1021 / 30.15
 00:31 Overcast  E 15/0 (17/0) 23(74) 80 1021 / 30.15
 23:55 Overcast  ENE 14/0 (16/0) 23(74) 79 1021 / 30.16
 23:48 Overcast Showers ENE 14/0 (16/0) 23(74) 79 1021 / 30.16
 23:34 Overcast Showers ENE 14/0 (16/0) 24(75) 76 1021 / 30.16
 22:55 Overcast  ENE 13/0 (15/0) 24(75) 77 1021 / 30.16
 21:55 Overcast  ENE 14/0 (16/0) 24(75) 77 1021 / 30.15
 20:55 Mostly Cloudy  ENE 14/0 (16/0) 24(75) 79 1021 / 30.15
 20:16 Mostly Cloudy  ENE 15/0 (17/0) 24(75) 79 1021 / 30.14
 19:55 Mostly Cloudy  ENE 14/0 (16/0) 24(75) 78 1021 / 30.14
 18:55 Mostly Cloudy  NE 13/0 (15/0) 24(75) 78 1020 / 30.13
 17:55 Mostly Cloudy  ENE 16/0 (18/0) 25(76) 74 1020 / 30.12
 16:55 Mostly Cloudy Showers ENE 16/0 (18/0) 24(76) 77 1020 / 30.11
 15:55 Mostly Cloudy Showers ENE 15/0 (17/0) 25(77) 76 1020 / 30.11
 15:41 Mostly Cloudy  ENE 16/0 (18/0) 25(77) 77 1020 / 30.11
 14:55 Mostly Cloudy  ENE 15/0 (17/0) 25(77) 76 1019 / 30.10
Observations from our AWOS sites are available here (password and username are both 'guest').